Time;durP1;ratioP1;P1;durP2;ratioP2;P2;SDS_P1;SDS_P2;PMS_P1;PMS_P2;Temp;Humidity;BMP_temperature;BMP_pressure;BME280_temperature;BME280_humidity;BME280_pressure;Samples;Min_cycle;Max_cycle;Signal;HPM_P1;HPM_P2
2022/04/14 00:00:53;;;;;;;14.00;5.53;;;;;;;11.31;54.23;101096.22;5072676;28;19913;-75
2022/04/14 00:03:40;;;;;;;13.48;5.25;;;;;;;11.28;54.29;101091.41;5073086;28;20043;-77
2022/04/14 00:06:25;;;;;;;10.95;6.30;;;;;;;11.38;53.75;101102.03;5059760;28;20048;-75
2022/04/14 00:09:10;;;;;;;7.25;4.53;;;;;;;11.65;53.09;101095.63;5052533;28;20052;-75
2022/04/14 00:11:55;;;;;;;;;;;;;;;11.76;52.74;101091.53;5069414;28;20435;-75
2022/04/14 00:14:40;;;;;;;13.27;5.90;;;;;;;11.87;52.88;101092.88;5065650;28;19916;-75
2022/04/14 00:17:25;;;;;;;10.73;5.10;;;;;;;11.58;53.82;101093.34;5059558;28;20123;-75
2022/04/14 00:20:10;;;;;;;15.18;6.90;;;;;;;11.38;54.34;101096.59;5055910;28;20051;-75
2022/04/14 00:22:55;;;;;;;16.55;7.25;;;;;;;11.22;55.19;101098.09;5053862;28;20043;-75
2022/04/14 00:25:40;;;;;;;9.30;5.00;;;;;;;11.29;55.49;101103.91;5061837;28;20051;-76
2022/04/14 00:28:25;;;;;;;12.65;6.32;;;;;;;11.28;55.48;101092.19;5072655;28;20071;-75
2022/04/14 00:31:10;;;;;;;6.50;4.28;;;;;;;11.21;55.82;101091.03;5074223;28;20506;-75
2022/04/14 00:33:55;;;;;;;13.18;5.82;;;;;;;11.28;55.25;101092.19;5072404;28;20044;-75
2022/04/14 00:36:40;;;;;;;13.02;5.32;;;;;;;11.21;55.64;101102.75;5078222;28;20052;-75
2022/04/14 00:39:25;;;;;;;13.02;6.40;;;;;;;11.23;55.87;101105.94;5072167;28;20055;-75
2022/04/14 00:42:11;;;;;;;14.05;7.05;;;;;;;11.14;55.39;101092.28;5077755;28;20055;-75
2022/04/14 00:44:56;;;;;;;20.33;7.55;;;;;;;11.04;55.80;101097.97;5072592;28;20051;-77
2022/04/14 00:47:41;;;;;;;12.38;5.68;;;;;;;10.93;55.49;101096.59;5072783;28;20679;-77
2022/04/14 00:50:26;;;;;;;8.60;5.00;;;;;;;11.17;55.22;101090.06;5111034;22;20586;-82
2022/04/14 00:53:12;;;;;;;11.95;4.63;;;;;;;11.22;54.91;101087.22;5100644;28;20043;-82
2022/04/14 00:55:57;;;;;;;14.18;5.93;;;;;;;11.23;54.55;101092.31;5108414;28;20055;-81
2022/04/14 00:58:42;;;;;;;9.77;4.60;;;;;;;11.04;55.03;101081.63;5099844;28;20428;-83
2022/04/14 01:01:28;;;;;;;9.65;5.78;;;;;;;10.96;54.66;101079.66;5085738;28;20420;-83
2022/04/14 01:04:13;;;;;;;10.75;5.22;;;;;;;10.95;55.04;101088.94;5096771;28;20055;-83
2022/04/14 01:06:57;;;;;;;8.07;3.95;;;;;;;10.87;54.95;101089.66;5092508;28;20059;-84
2022/04/14 01:09:45;;;;;;;14.63;4.65;;;;;;;10.85;54.48;101083.75;5091287;28;20055;-83
2022/04/14 01:12:31;;;;;;;12.88;5.07;;;;;;;10.62;55.58;101095.69;5091120;28;20048;-83
2022/04/14 01:15:15;;;;;;;10.07;5.70;;;;;;;10.77;55.19;101087.16;5080639;28;20043;-83
2022/04/14 01:18:00;;;;;;;14.80;4.47;;;;;;;10.79;55.43;101095.03;5077529;28;20059;-86
2022/04/14 01:20:45;;;;;;;14.60;4.88;;;;;;;10.57;56.16;101082.19;5096260;28;20070;-86
2022/04/14 01:23:36;;;;;;;;;;;;;;;10.52;55.78;101093.19;5096889;28;20412;-84
2022/04/14 01:26:21;;;;;;;13.68;5.47;;;;;;;10.47;56.36;101082.41;5102507;28;19912;-83
2022/04/14 01:29:06;;;;;;;10.70;4.65;;;;;;;10.52;56.55;101087.75;5090847;28;20043;-84
2022/04/14 01:31:52;;;;;;;11.55;4.88;;;;;;;10.54;55.99;101083.63;5095585;28;20050;-85
2022/04/14 01:34:37;;;;;;;12.73;5.10;;;;;;;10.42;56.13;101082.53;5095601;28;20048;-85
2022/04/14 01:37:22;;;;;;;;;;;;;;;10.68;55.41;101084.38;5099651;28;20804;-84
2022/04/14 01:40:08;;;;;;;10.27;5.40;;;;;;;10.82;54.88;101081.63;5094875;28;19912;-84
2022/04/14 01:42:52;;;;;;;11.43;5.03;;;;;;;10.70;54.90;101086.81;5095746;28;20043;-85
2022/04/14 01:45:37;;;;;;;11.90;5.38;;;;;;;10.62;55.03;101082.88;5093340;28;20047;-83
2022/04/14 01:48:22;;;;;;;9.07;4.32;;;;;;;10.68;54.73;101089.03;5094249;28;20051;-85
2022/04/14 01:51:07;;;;;;;11.32;5.05;;;;;;;10.60;55.20;101092.47;5076002;28;20692;-84
2022/04/14 01:53:52;;;;;;;9.32;4.43;;;;;;;10.65;55.55;101093.16;5103162;28;20067;-85
2022/04/14 01:56:36;;;;;;;;;;;;;;;10.58;55.27;101091.97;5103967;28;20042;-85
2022/04/14 01:59:21;;;;;;;9.65;4.85;;;;;;;10.71;55.40;101091.16;5098267;28;19912;-84
2022/04/14 02:02:06;;;;;;;6.10;3.75;;;;;;;10.68;54.65;101089.03;5076864;28;20123;-83
2022/04/14 02:04:51;;;;;;;6.80;3.65;;;;;;;10.52;54.87;101085.03;5077025;28;20150;-83
2022/04/14 02:07:36;;;;;;;6.20;3.35;;;;;;;10.52;54.99;101085.03;5082768;28;20416;-83
2022/04/14 02:10:20;;;;;;;8.35;5.10;;;;;;;10.51;55.00;101086.16;5082508;28;20062;-84
2022/04/14 02:13:04;;;;;;;12.68;5.20;;;;;;;10.55;54.91;101079.78;5101358;28;20051;-83
2022/04/14 02:15:49;;;;;;;10.25;4.10;;;;;;;10.55;55.01;101084.44;5097019;28;20051;-83
2022/04/14 02:18:35;;;;;;;14.43;4.28;;;;;;;10.51;55.53;101078.00;5095796;28;20055;-84
2022/04/14 02:21:19;;;;;;;9.90;4.18;;;;;;;10.41;55.91;101079.03;5100478;28;20055;-83
2022/04/14 02:24:05;;;;;;;15.18;5.15;;;;;;;10.60;55.19;101087.03;5096260;28;20043;-82
2022/04/14 02:26:49;;;;;;;6.13;3.85;;;;;;;10.53;55.13;101090.16;5101816;28;20051;-84
2022/04/14 02:29:34;;;;;;;7.03;4.05;;;;;;;10.50;55.19;101087.25;5092693;28;20043;-82
2022/04/14 02:32:19;;;;;;;12.20;5.32;;;;;;;10.48;55.25;101082.13;5096428;28;20051;-83
2022/04/14 02:35:04;;;;;;;11.43;6.40;;;;;;;10.47;55.45;101076.97;5096113;28;20534;-83
2022/04/14 02:37:49;;;;;;;13.32;6.30;;;;;;;10.41;55.68;101084.47;5095427;28;20535;-82
2022/04/14 02:40:33;;;;;;;10.55;5.47;;;;;;;10.36;56.54;101081.06;5094666;28;20043;-83
2022/04/14 02:43:18;;;;;;;9.77;4.82;;;;;;;10.48;56.12;101087.56;5095281;28;20063;-82
2022/04/14 02:46:04;;;;;;;11.27;5.88;;;;;;;10.44;55.14;101086.56;5100559;28;20046;-82
2022/04/14 02:48:49;;;;;;;11.73;5.70;;;;;;;10.53;55.44;101092.06;5098163;28;20142;-82
2022/04/14 02:51:33;;;;;;;11.40;6.55;;;;;;;10.72;55.06;101087.28;5096219;28;20519;-82
2022/04/14 02:54:19;;;;;;;12.45;6.10;;;;;;;10.69;54.96;101085.19;5094761;28;20404;-82
2022/04/14 02:57:05;;;;;;;10.77;6.10;;;;;;;10.62;54.71;101087.50;5098613;28;20055;-83
2022/04/14 02:59:50;;;;;;;13.20;6.45;;;;;;;10.56;55.56;101091.47;5095911;28;20515;-84
2022/04/14 03:02:35;;;;;;;9.43;4.85;;;;;;;10.56;55.08;101086.84;5094541;28;20043;-81
2022/04/14 03:05:20;;;;;;;20.80;6.32;;;;;;;10.58;55.06;101092.78;5091872;28;20047;-83
2022/04/14 03:08:05;;;;;;;14.88;7.43;;;;;;;10.46;55.48;101088.97;5074671;28;20047;-83
2022/04/14 03:10:49;;;;;;;15.68;5.55;;;;;;;10.41;55.85;101083.66;5081643;28;20066;-84
2022/04/14 03:13:34;;;;;;;10.80;5.85;;;;;;;10.22;57.62;101087.28;5094327;28;20051;-84
2022/04/14 03:16:19;;;;;;;13.10;7.00;;;;;;;10.21;57.29;101085.69;5096455;28;20058;-83
2022/04/14 03:19:04;;;;;;;14.80;7.45;;;;;;;10.34;57.67;101083.25;5094203;28;20047;-85
2022/04/14 03:21:50;;;;;;;12.73;5.93;;;;;;;10.30;57.38;101085.78;5099885;28;20661;-84
2022/04/14 03:24:35;;;;;;;20.73;8.38;;;;;;;10.23;58.33;101088.09;5096384;28;20043;-83
2022/04/14 03:27:19;;;;;;;11.15;5.78;;;;;;;10.19;58.19;101087.91;5094754;28;20050;-82
2022/04/14 03:30:06;;;;;;;15.55;7.60;;;;;;;10.18;58.15;101090.91;5096397;28;20054;-82
2022/04/14 03:32:50;;;;;;;16.67;7.53;;;;;;;10.27;57.22;101080.94;5099605;28;20051;-83
2022/04/14 03:35:35;;;;;;;11.70;5.95;;;;;;;10.27;58.00;101087.19;5094598;28;20043;-83
2022/04/14 03:38:19;;;;;;;14.25;8.35;;;;;;;10.15;59.01;101086.88;5098686;28;20047;-83
2022/04/14 03:41:05;;;;;;;11.38;7.22;;;;;;;10.10;58.83;101088.91;5092834;28;20043;-83
2022/04/14 03:43:50;;;;;;;18.17;8.18;;;;;;;10.13;57.28;101088.28;5094693;28;20047;-83
2022/04/14 03:46:35;;;;;;;13.00;7.95;;;;;;;9.88;58.64;101093.09;5098571;28;20126;-82
2022/04/14 03:49:20;;;;;;;14.05;6.05;;;;;;;9.76;59.48;101089.25;5093348;28;20535;-82
2022/04/14 03:52:05;;;;;;;14.02;9.05;;;;;;;9.98;60.20;101083.94;5099532;28;20411;-85
2022/04/14 03:54:50;;;;;;;22.63;9.52;;;;;;;9.72;60.96;101080.13;5107598;28;20080;-83
2022/04/14 03:57:35;;;;;;;14.27;7.30;;;;;;;9.67;61.30;101080.22;5103191;28;20047;-84
2022/04/14 04:00:20;;;;;;;12.70;6.93;;;;;;;9.32;62.99;101085.19;5100820;28;20051;-85
2022/04/14 04:03:07;;;;;;;12.30;6.97;;;;;;;9.23;64.38;101092.38;5092112;28;20048;-85
2022/04/14 04:05:52;;;;;;;19.30;8.88;;;;;;;9.22;64.13;101090.78;5081346;28;20047;-84
2022/04/14 04:08:37;;;;;;;16.13;8.23;;;;;;;8.96;65.20;101087.66;5078273;28;20051;-84
2022/04/14 04:11:21;;;;;;;20.30;9.38;;;;;;;8.85;65.96;101090.81;5077047;28;20056;-85
2022/04/14 04:14:06;;;;;;;20.88;9.57;;;;;;;8.73;66.25;101085.84;5093915;28;20047;-83
2022/04/14 04:16:51;;;;;;;22.60;10.55;;;;;;;8.90;65.58;101077.19;5096591;28;20114;-85
2022/04/14 04:19:38;;;;;;;20.45;8.30;;;;;;;9.03;65.36;101087.28;5095731;28;20071;-84
2022/04/14 04:22:23;;;;;;;28.02;9.48;;;;;;;8.80;66.18;101091.69;5097438;28;20051;-83
2022/04/14 04:25:07;;;;;;;44.50;9.50;;;;;;;8.79;66.33;101094.69;5084335;28;20516;-83
2022/04/14 04:27:52;;;;;;;17.15;7.43;;;;;;;8.98;66.12;101092.81;5075241;28;20075;-84
2022/04/14 04:30:37;;;;;;;18.35;7.00;;;;;;;9.13;64.70;101087.13;5074735;28;20047;-83
2022/04/14 04:33:23;;;;;;;15.43;6.88;;;;;;;9.28;64.21;101100.44;5085312;28;20543;-84
2022/04/14 04:36:08;;;;;;;16.05;8.50;;;;;;;9.61;62.82;101100.41;5094611;28;20051;-82
2022/04/14 04:38:52;;;;;;;16.70;6.95;;;;;;;9.63;61.93;101103.63;5100202;28;20051;-84
2022/04/14 04:41:37;;;;;;;19.65;9.88;;;;;;;9.61;62.28;101103.94;5091900;28;21254;-83
2022/04/14 04:44:22;;;;;;;17.20;7.43;;;;;;;9.66;62.19;101106.56;5086615;28;20039;-84
2022/04/14 04:47:07;;;;;;;14.82;7.47;;;;;;;9.66;61.96;101101.13;5099772;28;20047;-83
2022/04/14 04:49:52;;;;;;;15.48;6.93;;;;;;;9.66;62.32;101098.41;5096219;28;20094;-84
2022/04/14 04:52:37;;;;;;;17.92;9.20;;;;;;;9.70;61.22;101098.63;5083860;28;20039;-84
2022/04/14 04:55:22;;;;;;;14.82;6.88;;;;;;;9.68;61.38;101098.13;5085058;28;20047;-83
2022/04/14 04:58:07;;;;;;;17.25;7.18;;;;;;;9.80;61.02;101101.16;5088257;28;20050;-84
2022/04/14 05:00:53;;;;;;;23.17;10.88;;;;;;;9.47;61.42;101099.59;5093445;28;20059;-82
2022/04/14 05:03:38;;;;;;;21.38;9.25;;;;;;;9.55;62.01;101096.19;5098420;28;20050;-82
2022/04/14 05:06:23;;;;;;;20.65;9.27;;;;;;;9.48;62.53;101098.47;5074022;28;20055;-82
2022/04/14 05:09:07;;;;;;;23.88;10.75;;;;;;;9.61;62.24;101105.84;5088362;28;20059;-83
2022/04/14 05:11:52;;;;;;;22.43;10.43;;;;;;;9.79;61.87;101099.53;5078514;28;20174;-82
2022/04/14 05:14:37;;;;;;;17.23;8.32;;;;;;;9.83;61.94;101095.94;5085379;28;20300;-83
2022/04/14 05:17:23;;;;;;;;;;;;;;;9.89;62.21;101099.34;5095073;28;20039;-83
2022/04/14 05:20:08;;;;;;;23.33;8.10;;;;;;;10.14;61.43;101096.13;5073220;28;19912;-84
2022/04/14 05:22:53;;;;;;;39.88;10.85;;;;;;;10.43;60.80;101097.72;5089849;28;20071;-81
2022/04/14 05:25:41;;;;;;;16.02;7.85;;;;;;;10.67;60.42;101101.00;5078741;28;20040;-82
2022/04/14 05:28:26;;;;;;;30.45;10.52;;;;;;;10.78;60.55;101098.84;5084647;28;20051;-83
2022/04/14 05:31:11;;;;;;;16.27;8.10;;;;;;;10.93;60.31;101098.50;5091052;28;20062;-83
2022/04/14 05:33:55;;;;;;;18.02;8.73;;;;;;;11.21;59.13;101096.50;5093858;28;20051;-83
2022/04/14 05:36:40;;;;;;;21.10;10.05;;;;;;;11.18;60.00;101097.91;5091382;28;20055;-83
2022/04/14 05:39:25;;;;;;;16.25;7.15;;;;;;;11.69;59.29;101091.16;5095752;28;20044;-82
2022/04/14 05:42:10;;;;;;;20.63;11.10;;;;;;;11.93;58.26;101086.19;5094282;28;20047;-82
2022/04/14 05:44:55;;;;;;;41.45;12.63;;;;;;;12.02;57.73;101092.47;5080445;28;20428;-81
2022/04/14 05:47:39;;;;;;;28.25;10.90;;;;;;;12.43;56.50;101098.34;5085174;28;20044;-83
2022/04/14 05:50:24;;;;;;;46.53;11.23;;;;;;;12.58;56.38;101091.63;5078928;28;20040;-83
2022/04/14 05:53:10;;;;;;;22.98;9.60;;;;;;;13.17;54.88;101094.72;5088411;28;20047;-82
2022/04/14 05:55:55;;;;;;;25.58;9.45;;;;;;;13.75;53.37;101088.63;5084594;28;20126;-83
2022/04/14 05:58:39;;;;;;;27.13;9.90;;;;;;;14.07;52.75;101093.47;5091137;28;20417;-83
2022/04/14 06:01:25;;;;;;;26.95;10.13;;;;;;;14.24;52.32;101097.25;5081906;28;20043;-83
2022/04/14 06:04:10;;;;;;;26.02;11.07;;;;;;;14.76;50.39;101098.56;5095458;28;20035;-84
2022/04/14 06:06:55;;;;;;;13.43;7.47;;;;;;;14.80;51.93;101088.53;5085177;28;20504;-83
2022/04/14 06:09:39;;;;;;;14.85;8.05;;;;;;;15.80;48.88;101098.34;5091452;28;20102;-83
2022/04/14 06:12:24;;;;;;;18.02;8.20;;;;;;;16.38;47.48;101102.63;5089537;28;20043;-83
2022/04/14 06:15:09;;;;;;;;;;;;;;;18.13;43.96;101098.09;5090874;28;20055;-82
2022/04/14 06:17:54;;;;;;;41.10;12.05;;;;;;;20.78;37.93;101094.84;5091370;28;20412;-83
2022/04/14 06:20:39;;;;;;;;;;;;;;;22.28;34.90;101094.47;5091691;28;20651;-84
2022/04/14 06:23:23;;;;;;;21.17;9.70;;;;;;;23.98;30.95;101100.66;5094507;28;19916;-84
2022/04/14 06:26:08;;;;;;;30.98;11.18;;;;;;;24.80;28.86;101096.56;5093291;28;20512;-85
2022/04/14 06:28:53;;;;;;;;;;;;;;;25.58;27.72;101096.25;5091182;28;20043;-84
2022/04/14 06:31:37;;;;;;;18.52;9.75;;;;;;;25.97;27.18;101093.13;5091541;28;19912;-84
2022/04/14 06:34:22;;;;;;;;;;;;;;;26.79;25.79;101093.94;5097587;28;20511;-84
2022/04/14 06:37:07;;;;;;;21.00;8.95;;;;;;;28.43;23.55;101090.31;5091563;28;19912;-86
2022/04/14 06:39:51;;;;;;;25.13;9.15;;;;;;;28.07;23.43;101094.94;5105375;28;20047;-87
2022/04/14 06:42:36;;;;;;;21.38;9.10;;;;;;;29.75;22.30;101103.13;5094723;28;20043;-86
2022/04/14 06:45:21;;;;;;;27.25;9.73;;;;;;;29.28;22.42;101102.59;5095288;28;20063;-85
2022/04/14 06:48:08;;;;;;;20.52;9.00;;;;;;;28.76;22.90;101101.69;5107971;28;20054;-88
2022/04/14 06:50:53;;;;;;;26.52;9.15;;;;;;;28.88;23.07;101098.25;5110773;22;20080;-75
2022/04/14 06:53:38;;;;;;;19.90;8.77;;;;;;;28.94;22.87;101096.53;5042644;28;20052;-76
2022/04/14 06:56:23;;;;;;;22.90;8.50;;;;;;;29.37;22.43;101107.63;5044401;28;20048;-76
2022/04/14 06:59:08;;;;;;;23.67;8.75;;;;;;;28.51;23.13;101104.94;5067424;28;20048;-76
2022/04/14 07:01:53;;;;;;;19.52;9.52;;;;;;;29.24;22.57;101106.69;5060961;28;20047;-76
2022/04/14 07:04:39;;;;;;;28.50;10.30;;;;;;;29.42;22.65;101109.91;5068213;28;20055;-76
2022/04/14 07:07:24;;;;;;;18.50;9.40;;;;;;;27.73;24.66;101108.28;5056001;28;20037;-76
2022/04/14 07:10:11;;;;;;;24.88;9.40;;;;;;;29.72;21.90;101112.41;5064618;28;21231;-75
2022/04/14 07:12:55;;;;;;;20.00;8.15;;;;;;;30.35;20.55;101108.44;5065916;28;20515;-75
2022/04/14 07:15:40;;;;;;;25.52;9.82;;;;;;;29.87;21.22;101109.25;5073824;28;20055;-76
2022/04/14 07:18:27;;;;;;;21.08;7.82;;;;;;;31.86;19.20;101113.63;5057848;28;20048;-75
2022/04/14 07:21:11;;;;;;;14.20;7.20;;;;;;;32.50;18.26;101115.09;5044793;28;20048;-76
2022/04/14 07:23:56;;;;;;;17.73;8.23;;;;;;;32.91;17.50;101110.41;5052709;28;20048;-74
2022/04/14 07:26:41;;;;;;;18.90;7.90;;;;;;;35.46;15.31;101122.16;5053912;28;20044;-72
2022/04/14 07:29:26;;;;;;;16.25;6.97;;;;;;;33.35;17.66;101108.34;5033637;28;20068;-71
2022/04/14 07:32:11;;;;;;;18.33;8.10;;;;;;;33.64;17.39;101120.03;5033094;28;20052;-71
2022/04/14 07:34:56;;;;;;;15.25;6.78;;;;;;;34.40;17.01;101113.66;5033526;28;20048;-71
2022/04/14 07:37:41;;;;;;;16.77;7.75;;;;;;;31.43;19.96;101115.00;5033866;28;20425;-71
2022/04/14 07:40:27;;;;;;;17.63;7.80;;;;;;;32.67;18.96;101112.88;5033412;28;20048;-71
2022/04/14 07:43:11;;;;;;;16.30;6.93;;;;;;;33.37;17.27;101111.47;5039836;28;20048;-70
2022/04/14 07:45:56;;;;;;;27.70;7.93;;;;;;;35.78;15.33;101120.63;5052355;28;20047;-71
2022/04/14 07:48:41;;;;;;;17.40;7.95;;;;;;;33.74;16.98;101130.13;5053315;28;20515;-71
2022/04/14 07:51:25;;;;;;;17.00;8.27;;;;;;;34.03;16.93;101128.97;5049242;28;20044;-70
2022/04/14 07:54:10;;;;;;;20.33;8.07;;;;;;;34.82;16.14;101127.19;5046868;28;20048;-71
2022/04/14 07:56:56;;;;;;;19.80;8.07;;;;;;;34.73;15.99;101125.94;5051812;28;20060;-71
2022/04/14 07:59:40;;;;;;;15.57;8.45;;;;;;;35.14;15.10;101134.97;5053200;28;20052;-71
2022/04/14 08:02:25;;;;;;;44.50;12.07;;;;;;;35.12;15.55;101126.97;5045150;28;20044;-71
2022/04/14 08:05:10;;;;;;;123.55;27.63;;;;;;;35.22;16.06;101124.91;5052957;28;20488;-72
2022/04/14 08:07:56;;;;;;;46.10;14.55;;;;;;;35.34;15.47;101126.78;5052903;28;20408;-72
2022/04/14 08:10:42;;;;;;;27.38;10.07;;;;;;;35.11;15.73;101133.09;5045275;28;20049;-71
2022/04/14 08:13:29;;;;;;;22.75;9.65;;;;;;;35.24;15.67;101132.94;5047324;28;20492;-73
2022/04/14 08:16:14;;;;;;;24.13;10.02;;;;;;;35.06;15.43;101136.56;5047780;28;20052;-72
2022/04/14 08:18:59;;;;;;;28.52;9.27;;;;;;;36.58;14.63;101146.06;5032796;28;20033;-70
2022/04/14 08:21:45;;;;;;;22.52;8.52;;;;;;;35.33;15.95;101144.22;5032913;28;20432;-72
2022/04/14 08:24:34;;;;;;;22.42;8.77;;;;;;;39.36;12.57;101142.91;5032730;28;20049;-73
2022/04/14 08:27:18;;;;;;;13.73;7.72;;;;;;;39.83;12.49;101155.66;5045370;28;20389;-73
2022/04/14 08:30:03;;;;;;;17.20;9.00;;;;;;;40.14;12.06;101155.59;5041370;28;20044;-73
2022/04/14 08:32:50;;;;;;;22.35;8.55;;;;;;;39.75;11.95;101158.19;5051856;28;20047;-73
2022/04/14 08:35:35;;;;;;;15.68;8.38;;;;;;;39.88;11.98;101157.78;5052291;28;20051;-72
2022/04/14 08:38:21;;;;;;;21.45;8.20;;;;;;;40.40;11.39;101161.19;5052911;28;20052;-73
2022/04/14 08:41:08;;;;;;;17.05;7.90;;;;;;;39.73;11.52;101153.00;5052013;28;20526;-73
2022/04/14 08:43:58;;;;;;;18.17;8.88;;;;;;;41.58;10.88;101171.56;5052244;28;20052;-72
2022/04/14 08:46:43;;;;;;;18.42;7.60;;;;;;;39.95;12.08;101157.31;5052673;28;20060;-72
2022/04/14 08:49:30;;;;;;;15.93;7.82;;;;;;;40.79;11.54;101158.50;5052016;28;20056;-73
2022/04/14 08:52:16;;;;;;;18.35;7.38;;;;;;;39.56;12.35;101154.97;5052204;28;20052;-74
2022/04/14 08:55:04;;;;;;;15.02;7.07;;;;;;;41.93;10.37;101163.19;5051877;28;20068;-74
2022/04/14 08:57:49;;;;;;;17.55;7.50;;;;;;;41.83;10.68;101164.75;5052215;28;20040;-73
2022/04/14 09:00:34;;;;;;;19.60;7.35;;;;;;;39.54;11.62;101148.22;5051734;28;20071;-73
2022/04/14 09:03:19;;;;;;;14.68;7.43;;;;;;;40.37;10.78;101156.50;5046005;28;20532;-72
2022/04/14 09:06:03;;;;;;;18.38;7.50;;;;;;;39.92;10.94;101156.28;5045235;28;20055;-73
2022/04/14 09:08:48;;;;;;;14.90;7.60;;;;;;;41.86;9.79;101163.69;5054551;28;20060;-72
2022/04/14 09:11:34;;;;;;;13.63;7.15;;;;;;;43.26;8.50;101161.00;5046556;28;20062;-72
2022/04/14 09:14:18;;;;;;;20.95;7.40;;;;;;;42.54;8.78;101147.91;5050505;28;20415;-73
2022/04/14 09:17:05;;;;;;;12.88;6.95;;;;;;;41.93;8.72;101146.06;5050194;28;20407;-74
2022/04/14 09:19:50;;;;;;;14.32;7.25;;;;;;;44.12;7.62;101155.47;5051595;28;20052;-74
2022/04/14 09:22:35;;;;;;;15.15;7.15;;;;;;;43.81;8.05;101153.97;5051683;28;20120;-73
2022/04/14 09:25:21;;;;;;;19.90;6.65;;;;;;;46.16;6.93;101166.31;5051750;28;20412;-73
2022/04/14 09:28:11;;;;;;;18.23;7.93;;;;;;;43.33;7.93;101141.13;5051750;28;20072;-74
2022/04/14 09:31:02;;;;;;;13.55;7.00;;;;;;;44.95;7.55;101147.84;5050861;28;20526;-74
2022/04/14 09:33:48;;;;;;;15.75;6.68;;;;;;;44.48;7.79;101141.72;5051924;28;20116;-73
2022/04/14 09:36:33;;;;;;;17.92;6.95;;;;;;;45.72;6.13;101153.59;5051605;28;20048;-73
2022/04/14 09:39:18;;;;;;;15.23;6.43;;;;;;;45.13;6.83;101155.66;5051376;28;20048;-74
2022/04/14 09:42:12;;;;;;;19.52;6.78;;;;;;;44.79;6.84;101149.66;5051574;28;20107;-74
2022/04/14 09:45:18;;;;;;;14.82;6.93;;;;;;;45.27;6.35;101154.34;5051339;28;20090;-73
2022/04/14 09:48:07;;;;;;;14.95;7.88;;;;;;;47.63;5.42;101151.66;5055374;28;20048;-74
2022/04/14 09:50:52;;;;;;;23.80;7.97;;;;;;;47.12;5.70;101144.28;5051282;28;20056;-74
2022/04/14 09:53:37;;;;;;;22.05;7.57;;;;;;;45.87;6.42;101143.09;5051330;28;20044;-74
2022/04/14 09:56:23;;;;;;;14.27;6.45;;;;;;;45.26;6.38;101138.44;5051354;28;20056;-73
2022/04/14 09:59:08;;;;;;;15.60;6.72;;;;;;;43.08;7.23;101133.78;5051398;28;20044;-73
2022/04/14 10:02:10;;;;;;;17.10;6.18;;;;;;;43.41;7.05;101132.72;5051311;28;20067;-74
2022/04/14 10:04:56;;;;;;;22.50;7.40;;;;;;;46.37;5.42;101136.34;5051404;28;20078;-73
2022/04/14 10:07:58;;;;;;;20.02;6.90;;;;;;;46.00;5.53;101133.69;5051251;28;20412;-74
2022/04/14 10:10:48;;;;;;;14.55;6.40;;;;;;;45.11;6.09;101124.59;5051166;28;20060;-74
2022/04/14 10:13:38;;;;;;;10.73;6.45;;;;;;;45.67;5.73;101126.47;5042828;28;20056;-74
2022/04/14 10:16:25;;;;;;;15.95;6.53;;;;;;;39.37;9.66;101108.22;5035217;28;20112;-74
2022/04/14 10:19:10;;;;;;;13.88;6.97;;;;;;;44.15;6.55;101117.88;5035112;28;20056;-74
2022/04/14 10:21:56;;;;;;;14.73;7.07;;;;;;;45.20;6.39;101125.50;5044928;28;20052;-75
2022/04/14 10:24:40;;;;;;;12.10;6.03;;;;;;;45.30;6.10;101118.81;5050152;28;20434;-75
2022/04/14 10:27:26;;;;;;;15.35;6.70;;;;;;;45.10;6.34;101119.41;5035268;28;20040;-74
2022/04/14 10:30:14;;;;;;;16.50;6.93;;;;;;;46.55;5.21;101116.59;5035411;28;20405;-75
2022/04/14 10:32:59;;;;;;;14.35;5.90;;;;;;;45.52;5.35;101106.91;5052677;28;20423;-76
2022/04/14 10:35:45;;;;;;;12.80;4.20;;;;;;;43.41;5.23;101109.81;5050089;28;20103;-74
2022/04/14 10:38:31;;;;;;;11.13;4.50;;;;;;;48.23;3.71;101116.59;5048341;28;20048;-76
2022/04/14 10:41:19;;;;;;;11.80;4.10;;;;;;;48.01;3.64;101109.38;5046285;28;20052;-74
2022/04/14 10:44:04;;;;;;;13.52;5.80;;;;;;;48.95;3.75;101122.22;5054404;28;20044;-74
2022/04/14 10:46:51;;;;;;;12.25;3.78;;;;;;;43.30;5.13;101098.47;5054518;28;20515;-76
2022/04/14 10:49:40;;;;;;;13.30;6.20;;;;;;;46.30;4.71;101108.22;5054417;28;20048;-75
2022/04/14 10:52:26;;;;;;;14.65;6.45;;;;;;;48.74;3.72;101107.94;5054103;28;20056;-74
2022/04/14 10:55:38;;;;;;;11.02;5.22;;;;;;;48.78;3.28;101106.22;5053951;28;20060;-75
2022/04/14 10:58:26;;;;;;;13.00;5.78;;;;;;;45.67;5.12;101105.59;5054192;28;20055;-75
2022/04/14 11:01:14;;;;;;;9.77;5.03;;;;;;;40.78;7.21;101088.44;5054129;28;20408;-76
2022/04/14 11:03:59;;;;;;;11.35;4.63;;;;;;;45.35;5.29;101097.81;5054220;28;20523;-75
2022/04/14 11:06:48;;;;;;;15.43;6.10;;;;;;;47.13;4.53;101105.50;5049568;28;20036;-75
2022/04/14 11:09:42;;;;;;;15.20;6.68;;;;;;;46.00;5.32;101099.19;5050759;28;20056;-75
2022/04/14 11:12:29;;;;;;;14.93;6.30;;;;;;;45.50;5.66;101108.78;5048521;28;20068;-75
2022/04/14 11:15:29;;;;;;;14.85;6.60;;;;;;;45.48;5.59;101100.72;5045643;28;20056;-75
2022/04/14 11:18:16;;;;;;;17.20;7.72;;;;;;;44.58;6.10;101092.00;5053976;28;20044;-75
2022/04/14 11:21:01;;;;;;;14.63;6.45;;;;;;;45.72;5.30;101096.84;5052303;28;20064;-74
2022/04/14 11:23:52;;;;;;;19.35;7.00;;;;;;;47.77;4.56;101109.81;5047558;28;20147;-75
2022/04/14 11:26:39;;;;;;;16.05;4.80;;;;;;;47.91;4.05;101103.34;5044983;28;20044;-74
2022/04/14 11:29:33;;;;;;;12.02;6.03;;;;;;;48.63;4.12;101100.38;5040730;28;20144;-75
2022/04/14 11:32:38;;;;;;;13.50;6.25;;;;;;;45.11;5.42;101095.09;5050385;28;20067;-75
2022/04/14 11:35:30;;;;;;;20.60;6.28;;;;;;;48.18;4.34;101097.34;5047380;28;20044;-75
2022/04/14 11:38:52;;;;;;;14.93;6.03;;;;;;;46.22;4.83;101098.75;5047094;28;20271;-74
2022/04/14 11:41:53;;;;;;;14.98;7.13;;;;;;;43.54;6.60;101089.91;5033364;28;20515;-74
2022/04/14 11:44:38;;;;;;;21.40;7.53;;;;;;;46.48;5.56;101094.97;5050577;28;20056;-73
2022/04/14 11:47:25;;;;;;;13.27;7.00;;;;;;;45.25;5.53;101088.06;5033465;28;20504;-77
2022/04/14 11:50:10;;;;;;;18.15;6.07;;;;;;;43.08;6.18;101085.88;5033716;28;20495;-74
2022/04/14 11:53:00;;;;;;;18.85;6.95;;;;;;;42.95;6.98;101080.00;5057399;28;20527;-76
2022/04/14 11:55:45;;;;;;;19.98;6.78;;;;;;;46.54;4.87;101089.13;5053094;28;20443;-76
2022/04/14 11:58:30;;;;;;;13.20;5.10;;;;;;;45.37;5.13;101089.41;5053096;28;20068;-76
2022/04/14 12:01:15;;;;;;;21.95;5.85;;;;;;;40.30;7.68;101083.66;5053051;28;20068;-76
2022/04/14 12:04:00;;;;;;;13.57;5.55;;;;;;;45.29;5.26;101088.50;5055179;28;20515;-76
2022/04/14 12:06:53;;;;;;;14.88;6.50;;;;;;;45.42;5.12;101084.91;5056197;28;20051;-76
2022/04/14 12:09:38;;;;;;;16.70;5.32;;;;;;;42.48;6.49;101073.56;5057303;28;20049;-76
2022/04/14 12:12:23;;;;;;;13.55;5.80;;;;;;;43.06;6.57;101068.47;5052777;28;20071;-74
2022/04/14 12:15:09;;;;;;;14.80;5.55;;;;;;;43.71;6.06;101067.56;5053280;28;20048;-76
2022/04/14 12:18:05;;;;;;;14.85;6.18;;;;;;;43.31;6.38;101059.91;5052743;28;20067;-74
2022/04/14 12:20:49;;;;;;;17.77;6.03;;;;;;;46.56;4.89;101063.44;5052445;28;20049;-74
2022/04/14 12:23:34;;;;;;;15.38;6.47;;;;;;;45.52;5.31;101066.66;5053093;28;20068;-73
2022/04/14 12:26:21;;;;;;;17.65;7.38;;;;;;;41.18;7.05;101050.06;5056633;28;20040;-74
2022/04/14 12:29:09;;;;;;;17.40;7.13;;;;;;;42.51;6.84;101046.75;5049543;28;20048;-74
2022/04/14 12:32:18;;;;;;;15.88;6.80;;;;;;;42.07;7.80;101042.03;5043550;28;20052;-74
2022/04/14 12:35:06;;;;;;;19.02;7.15;;;;;;;42.17;7.28;101045.38;5045290;28;20064;-75
2022/04/14 12:37:54;;;;;;;25.25;6.78;;;;;;;41.95;7.44;101037.69;5053696;28;20060;-72
2022/04/14 12:40:52;;;;;;;20.70;8.52;;;;;;;42.24;7.11;101036.25;5052099;28;20052;-75
2022/04/14 12:43:39;;;;;;;20.58;8.15;;;;;;;39.39;9.07;101034.50;5052542;28;20052;-72
2022/04/14 12:46:38;;;;;;;32.75;7.78;;;;;;;38.41;9.45;101025.31;5051759;28;20043;-73
2022/04/14 12:49:32;;;;;;;22.02;7.50;;;;;;;39.03;8.96;101035.22;5031800;28;20615;-73